Main page
METAR-TAF:

METAR-TAF

Airports :

Maiduguri International Airport

Maiduguri, Nigeria

latitude: 11-51N, longitude: 013-05E, elevation: 354 m

Current weather observation

The report was made 15 hours and 27 minutes ago, at 15:00 UTC
Wind 13 kt from the East/Northeast
Temperature 35°C
Humidity 16%
Pressure 1009 hPa
Visibility 10 km or more
no clouds below 1500 m and no cumulonimbus

METAR: DNMA 071500Z 06013KT CAVOK 35/05 Q1009

Time: 07:27 (06:27 UTC)

Forecast

The report was made 1 hour and 27 minutes ago, at 05:00 UTC
Forecast valid from 08 at 06 UTC to 09 at 12 UTC
Wind 7 kt from the Northeast
Visibility: 3000 m
haze
Temporary
from 08 at 06 UTC to 08 at 11 UTC
Visibility: 0800 m
widespread dust

TAF: DNMA 080500Z 0806/0912 05007KT 3000 HZ NSC TEMPO 0806/0811 0800 DU

Weather observations and forecasts of more than 4000 airports (METAR and TAF reports).

The available stations are represented by yellow and red dots on the map.

Hover mouse over dot to see the name of the station.

Then click to see weather observations and forecasts.

To change the map : click on the green buttons with a black cross to zoom in, on the green button with a dash to zoom out, or on the green arrows for adjacent maps.


METAR-TAF: